createdAt,value
2022-08-07T00:02:40.455Z,508.00
2022-08-07T00:07:21.296Z,517.00
2022-08-07T00:12:20.568Z,537.00
2022-08-07T00:17:18.884Z,524.00
2022-08-07T00:22:24.514Z,523.00
2022-08-07T00:27:16.175Z,516.00
2022-08-07T00:32:16.486Z,510.00
2022-08-07T00:37:15.807Z,517.00
2022-08-07T00:42:15.145Z,510.00
2022-08-07T00:47:15.800Z,521.00
2022-08-07T00:52:13.690Z,516.00
2022-08-07T00:57:12.828Z,532.00
2022-08-07T01:02:27.861Z,520.00
2022-08-07T01:07:12.155Z,510.00
2022-08-07T01:12:29.779Z,516.00
2022-08-07T01:17:09.571Z,517.00
2022-08-07T01:22:09.029Z,528.00
2022-08-07T01:27:20.009Z,524.00
2022-08-07T01:32:12.545Z,511.00
2022-08-07T01:37:09.666Z,522.00
2022-08-07T01:42:37.146Z,504.00
2022-08-07T01:47:14.360Z,510.00
2022-08-07T01:52:05.029Z,516.00
2022-08-07T01:57:03.399Z,510.00
2022-08-07T02:02:04.394Z,516.00
2022-08-07T02:07:00.960Z,507.00
2022-08-07T02:12:04.916Z,530.00
2022-08-07T02:17:00.538Z,532.00
2022-08-07T02:21:59.801Z,526.00
2022-08-07T02:27:01.445Z,533.00
2022-08-07T02:31:58.407Z,533.00
2022-08-07T02:36:57.685Z,535.00
2022-08-07T02:41:58.000Z,548.00
2022-08-07T02:46:57.180Z,536.00
2022-08-07T02:51:55.317Z,538.00
2022-08-07T02:56:54.602Z,538.00
2022-08-07T03:01:55.116Z,540.00
2022-08-07T03:06:53.184Z,544.00
2022-08-07T03:11:57.792Z,514.00
2022-08-07T03:16:52.478Z,539.00
2022-08-07T03:21:52.863Z,546.00
2022-08-07T03:26:58.122Z,541.00
2022-08-07T03:31:50.054Z,556.00
2022-08-07T03:36:48.731Z,542.00
2022-08-07T03:41:51.035Z,524.00
2022-08-07T03:47:11.215Z,523.00
2022-08-07T03:51:47.904Z,542.00
2022-08-07T03:57:03.294Z,530.00
2022-08-07T04:01:46.062Z,531.00
2022-08-07T04:06:44.917Z,523.00
2022-08-07T04:12:24.849Z,510.00
2022-08-07T04:16:43.034Z,513.00
2022-08-07T04:21:59.433Z,524.00
2022-08-07T04:26:40.780Z,522.00
2022-08-07T04:32:03.099Z,535.00
2022-08-07T04:36:39.203Z,491.00
2022-08-07T04:41:38.503Z,570.00
2022-08-07T04:46:42.809Z,493.00
2022-08-07T04:51:37.911Z,507.00
2022-08-07T04:58:11.837Z,514.00
2022-08-07T05:01:35.313Z,505.00
2022-08-07T05:06:43.770Z,496.00
2022-08-07T05:11:56.914Z,531.00
2022-08-07T05:16:32.870Z,497.00
2022-08-07T05:21:59.164Z,496.00
2022-08-07T05:26:31.229Z,489.00
2022-08-07T05:31:35.028Z,500.00
2022-08-07T05:36:35.072Z,503.00
2022-08-07T05:42:02.374Z,326.00
2022-08-07T05:46:29.412Z,495.00
2022-08-07T05:51:31.531Z,502.00
2022-08-07T05:56:30.199Z,497.00
2022-08-07T06:01:26.681Z,498.00
2022-08-07T06:06:29.456Z,486.00
2022-08-07T06:11:24.007Z,497.00
2022-08-07T06:16:24.308Z,505.00
2022-08-07T06:22:16.074Z,433.00
2022-08-07T06:26:27.614Z,547.00
2022-08-07T06:31:24.312Z,497.00
2022-08-07T06:36:34.990Z,568.00
2022-08-07T06:42:02.440Z,500.00
2022-08-07T06:46:31.471Z,462.00
2022-08-07T06:51:31.015Z,487.00
2022-08-07T06:56:16.790Z,486.00
2022-08-07T07:01:16.159Z,516.00
2022-08-07T07:06:26.443Z,526.00
2022-08-07T07:12:06.764Z,507.00
2022-08-07T07:16:14.993Z,493.00
2022-08-07T07:21:19.629Z,506.00
2022-08-07T07:26:35.471Z,510.00
2022-08-07T07:31:12.246Z,508.00
2022-08-07T07:36:13.171Z,496.00
2022-08-07T07:41:10.652Z,496.00
2022-08-07T07:46:40.089Z,496.00
2022-08-07T07:51:09.152Z,496.00
2022-08-07T07:56:07.418Z,519.00
2022-08-07T08:02:03.421Z,519.00
2022-08-07T08:06:05.896Z,481.00
2022-08-07T08:11:05.200Z,504.00
2022-08-07T08:16:04.513Z,488.00
2022-08-07T08:21:04.630Z,501.00
2022-08-07T08:26:07.000Z,482.00
2022-08-07T08:31:01.131Z,482.00
2022-08-07T08:36:01.475Z,491.00
2022-08-07T08:41:02.956Z,551.00
2022-08-07T08:46:01.165Z,536.00
2022-08-07T08:51:00.077Z,489.00
2022-08-07T08:55:59.474Z,528.00
2022-08-07T09:00:57.617Z,559.00
2022-08-07T09:05:56.868Z,504.00
2022-08-07T09:10:55.984Z,508.00
2022-08-07T09:16:23.532Z,480.00
2022-08-07T09:20:58.377Z,481.00
2022-08-07T09:25:55.692Z,503.00
2022-08-07T09:30:55.066Z,490.00
2022-08-07T09:36:02.675Z,490.00
2022-08-07T09:40:51.476Z,508.00
2022-08-07T09:47:26.194Z,491.00
2022-08-07T09:50:51.311Z,513.00
2022-08-07T09:56:03.289Z,502.00
2022-08-07T10:00:48.440Z,428.00
2022-08-07T10:06:00.120Z,484.00
2022-08-07T10:11:16.764Z,492.00
2022-08-07T10:15:46.083Z,480.00
2022-08-07T10:20:47.400Z,486.00
2022-08-07T10:25:45.642Z,503.00
2022-08-07T10:30:43.795Z,451.00
2022-08-07T10:35:55.347Z,445.00
2022-08-07T10:40:42.313Z,480.00
2022-08-07T10:45:57.823Z,481.00
2022-08-07T10:50:40.810Z,483.00
2022-08-07T10:55:41.121Z,477.00
2022-08-07T11:00:50.216Z,505.00
2022-08-07T11:05:51.063Z,487.00
2022-08-07T11:10:37.316Z,467.00
2022-08-07T11:15:36.932Z,476.00
2022-08-07T11:20:38.253Z,480.00
2022-08-07T11:25:36.169Z,484.00
2022-08-07T11:30:41.563Z,493.00
2022-08-07T11:35:35.770Z,487.00
2022-08-07T11:40:33.954Z,474.00
2022-08-07T11:45:35.819Z,474.00
2022-08-07T11:50:33.470Z,491.00
2022-08-07T11:56:15.706Z,499.00
2022-08-07T12:00:30.840Z,476.00
2022-08-07T12:05:47.420Z,481.00
2022-08-07T12:10:29.273Z,491.00
2022-08-07T12:15:46.070Z,450.00
2022-08-07T12:20:30.099Z,485.00
2022-08-07T12:26:02.823Z,473.00
2022-08-07T12:30:25.029Z,485.00
2022-08-07T12:35:25.183Z,481.00
2022-08-07T12:40:46.490Z,477.00
2022-08-07T12:45:23.589Z,493.00
2022-08-07T12:50:38.486Z,482.00
2022-08-07T12:55:21.015Z,479.00
2022-08-07T13:00:32.836Z,485.00
2022-08-07T13:06:03.481Z,477.00
2022-08-07T13:10:29.150Z,428.00
2022-08-07T13:15:23.645Z,451.00
2022-08-07T13:20:18.226Z,475.00
2022-08-07T13:25:24.160Z,498.00
2022-08-07T13:30:19.615Z,463.00
2022-08-07T13:35:15.757Z,476.00
2022-08-07T13:40:34.884Z,460.00
2022-08-07T13:46:12.072Z,465.00
2022-08-07T13:50:35.819Z,478.00
2022-08-07T13:55:19.203Z,503.00
2022-08-07T14:00:26.047Z,511.00
2022-08-07T14:05:10.065Z,508.00
2022-08-07T14:10:24.380Z,471.00
2022-08-07T14:15:09.369Z,502.00
2022-08-07T14:20:43.149Z,478.00
2022-08-07T14:25:08.207Z,469.00
2022-08-07T14:30:11.679Z,477.00
2022-08-07T14:35:05.219Z,483.00
2022-08-07T14:40:15.803Z,500.00
2022-08-07T14:45:21.724Z,459.00
2022-08-07T14:50:04.718Z,475.00
2022-08-07T14:55:03.023Z,466.00
2022-08-07T15:05:01.654Z,469.00
2022-08-07T15:10:04.864Z,472.00
2022-08-07T15:14:59.041Z,473.00
2022-08-07T15:20:32.530Z,473.00
2022-08-07T15:30:09.145Z,473.00
2022-08-07T15:34:57.174Z,480.00
2022-08-07T15:39:57.701Z,467.00
2022-08-07T15:44:56.095Z,452.00
2022-08-07T15:50:04.905Z,480.00
2022-08-07T15:54:53.544Z,483.00
2022-08-07T15:59:51.733Z,474.00
2022-08-07T16:04:50.972Z,483.00
2022-08-07T16:09:50.240Z,484.00
2022-08-07T16:14:50.526Z,466.00
2022-08-07T16:19:59.496Z,481.00
2022-08-07T16:24:52.565Z,484.00
2022-08-07T16:30:10.235Z,477.00
2022-08-07T16:34:48.655Z,475.00
2022-08-07T16:39:49.247Z,472.00
2022-08-07T16:45:14.690Z,482.00
2022-08-07T16:50:28.197Z,490.00
2022-08-07T16:54:55.268Z,480.00
2022-08-07T16:59:47.043Z,481.00
2022-08-07T17:04:57.806Z,485.00
2022-08-07T17:10:08.198Z,483.00
2022-08-07T17:14:41.468Z,472.00
2022-08-07T17:20:02.107Z,477.00
2022-08-07T17:24:40.065Z,475.00
2022-08-07T17:30:14.988Z,488.00
2022-08-07T17:34:47.052Z,488.00
2022-08-07T17:39:53.158Z,481.00
2022-08-07T17:44:45.421Z,474.00
2022-08-07T17:49:44.901Z,483.00
2022-08-07T17:54:39.866Z,477.00
2022-08-07T17:59:35.863Z,478.00
2022-08-07T18:04:34.432Z,484.00
2022-08-07T18:10:04.914Z,479.00
2022-08-07T18:14:32.379Z,472.00
2022-08-07T18:21:08.958Z,484.00
2022-08-07T18:24:34.696Z,484.00
2022-08-07T18:30:08.388Z,478.00
2022-08-07T18:34:37.420Z,481.00
2022-08-07T18:40:08.133Z,482.00
2022-08-07T18:44:26.557Z,482.00
2022-08-07T18:50:31.270Z,487.00
2022-08-07T18:54:30.940Z,479.00
2022-08-07T18:59:46.765Z,487.00
2022-08-07T19:04:35.826Z,492.00
2022-08-07T19:09:55.715Z,492.00
2022-08-07T19:14:23.046Z,484.00
2022-08-07T19:19:26.730Z,494.00
2022-08-07T19:24:30.770Z,502.00
2022-08-07T19:31:06.249Z,504.00
2022-08-07T19:34:34.398Z,511.00
2022-08-07T19:39:18.142Z,509.00
2022-08-07T19:44:22.029Z,500.00
2022-08-07T19:49:16.694Z,500.00
2022-08-07T19:54:33.986Z,501.00
2022-08-07T19:59:15.115Z,505.00
2022-08-07T20:04:32.046Z,526.00
2022-08-07T20:10:34.166Z,523.00
2022-08-07T20:14:20.537Z,526.00
2022-08-07T20:19:12.110Z,536.00
2022-08-07T20:24:12.276Z,535.00
2022-08-07T20:29:46.958Z,540.00
2022-08-07T20:34:09.667Z,548.00
2022-08-07T20:39:30.648Z,546.00
2022-08-07T20:44:12.617Z,539.00
2022-08-07T20:50:00.114Z,547.00
2022-08-07T20:54:15.143Z,541.00
2022-08-07T20:59:05.595Z,546.00
2022-08-07T21:04:21.973Z,547.00
2022-08-07T21:09:13.641Z,550.00
2022-08-07T21:14:32.836Z,548.00
2022-08-07T21:19:02.339Z,544.00
2022-08-07T21:24:01.657Z,550.00
2022-08-07T21:29:00.844Z,530.00
2022-08-07T21:34:00.154Z,533.00
2022-08-07T21:39:00.480Z,550.00
2022-08-07T21:43:58.570Z,565.00
2022-08-07T21:48:58.923Z,552.00
2022-08-07T21:53:58.191Z,550.00
2022-08-07T21:58:56.438Z,547.00
2022-08-07T22:04:00.497Z,539.00
2022-08-07T22:08:55.923Z,545.00
2022-08-07T22:13:55.614Z,533.00
2022-08-07T22:18:54.363Z,538.00
2022-08-07T22:23:52.570Z,554.00
2022-08-07T22:28:53.412Z,557.00
2022-08-07T22:33:57.004Z,566.00
2022-08-07T22:38:52.156Z,557.00
2022-08-07T22:43:49.336Z,561.00
2022-08-07T22:48:56.069Z,545.00
2022-08-07T22:54:07.301Z,551.00
2022-08-07T22:58:48.040Z,554.00
2022-08-07T23:03:58.680Z,559.00
2022-08-07T23:08:47.867Z,554.00
2022-08-07T23:13:49.132Z,567.00
2022-08-07T23:18:44.703Z,563.00
2022-08-07T23:24:06.746Z,557.00
2022-08-07T23:28:48.778Z,573.00
2022-08-07T23:34:33.551Z,585.00
2022-08-07T23:38:42.674Z,564.00
2022-08-07T23:43:40.717Z,563.00
2022-08-07T23:48:38.846Z,587.00
2022-08-07T23:53:51.330Z,582.00
2022-08-07T23:58:38.209Z,583.00
